Time;durP1;ratioP1;P1;durP2;ratioP2;P2;SDS_P1;SDS_P2;PMS_P1;PMS_P2;Temp;Humidity;BMP_temperature;BMP_pressure;BME280_temperature;BME280_humidity;BME280_pressure;Samples;Min_cycle;Max_cycle;Signal;HPM_P1;HPM_P2
2021/09/16 00:00:24;;;;;;;2.27;1.90;;;19.30;99.90;;;;;;6125932;23;20450;-84
2021/09/16 00:02:54;;;;;;;2.43;2.07;;;19.20;99.90;;;;;;6101352;23;20391;-81
2021/09/16 00:05:21;;;;;;;2.00;1.67;;;19.20;99.90;;;;;;6073995;23;20608;-84
2021/09/16 00:07:48;;;;;;;3.77;2.57;;;19.20;99.90;;;;;;6103462;23;20398;-86
2021/09/16 00:10:16;;;;;;;4.47;2.23;;;19.10;99.90;;;;;;6099602;23;20447;-85
2021/09/16 00:12:43;;;;;;;3.40;1.73;;;19.10;99.90;;;;;;6101016;23;20588;-83
2021/09/16 00:15:12;;;;;;;2.40;1.90;;;19.10;99.90;;;;;;6099725;23;20479;-84
2021/09/16 00:17:41;;;;;;;3.67;2.53;;;19.10;99.90;;;;;;6099894;23;20492;-83
2021/09/16 00:20:09;;;;;;;1.63;1.53;;;19.20;99.90;;;;;;6103320;23;20453;-84
2021/09/16 00:22:36;;;;;;;2.80;1.30;;;19.20;99.90;;;;;;6112518;23;20412;-85
2021/09/16 00:25:06;;;;;;;1.73;1.30;;;19.20;99.90;;;;;;6137268;23;20412;-84
2021/09/16 00:27:34;;;;;;;2.90;1.40;;;19.10;99.90;;;;;;6132045;23;20427;-85
2021/09/16 00:30:04;;;;;;;1.67;1.43;;;19.00;99.90;;;;;;6113239;23;20416;-87
2021/09/16 00:32:32;;;;;;;2.17;1.13;;;18.90;99.90;;;;;;6111250;23;20423;-86
2021/09/16 00:34:59;;;;;;;2.47;1.50;;;18.90;99.90;;;;;;6104924;23;20415;-84
2021/09/16 00:37:25;;;;;;;2.53;1.40;;;18.90;99.90;;;;;;6104121;23;20431;-83
2021/09/16 00:39:52;;;;;;;2.70;1.23;;;18.90;99.90;;;;;;6104846;23;20970;-84
2021/09/16 00:42:19;;;;;;;6.10;1.20;;;18.90;99.90;;;;;;6135838;23;20495;-85
2021/09/16 00:44:46;;;;;;;2.50;1.20;;;18.80;99.90;;;;;;6109105;23;20793;-85
2021/09/16 00:47:16;;;;;;;2.13;1.10;;;18.80;99.90;;;;;;6107225;23;20483;-85
2021/09/16 00:49:44;;;;;;;1.90;1.20;;;18.80;99.90;;;;;;6133071;23;20723;-82
2021/09/16 00:52:13;;;;;;;2.77;1.47;;;18.70;99.90;;;;;;6127131;23;20420;-82
2021/09/16 00:54:43;;;;;;;1.70;1.23;;;18.70;99.90;;;;;;6100989;23;20450;-83
2021/09/16 00:57:14;;;;;;;2.20;1.00;;;18.70;99.90;;;;;;6102100;23;20442;-83
2021/09/16 00:59:44;;;;;;;4.10;1.70;;;18.60;99.90;;;;;;6102478;23;20454;-83
2021/09/16 01:02:13;;;;;;;3.90;1.20;;;18.60;99.90;;;;;;6130454;23;20403;-83
2021/09/16 01:04:41;;;;;;;2.00;1.50;;;18.50;99.90;;;;;;6127951;23;20440;-84
2021/09/16 01:07:11;;;;;;;4.37;1.30;;;18.50;99.90;;;;;;6127472;23;20431;-81
2021/09/16 01:09:38;;;;;;;1.83;1.20;;;18.50;99.90;;;;;;6121846;23;20430;-85
2021/09/16 01:12:05;;;;;;;9.73;1.70;;;18.50;99.90;;;;;;6096897;23;20416;-83
2021/09/16 01:14:32;;;;;;;2.77;1.50;;;18.40;99.90;;;;;;6123217;23;20455;-84
2021/09/16 01:17:00;;;;;;;2.40;1.40;;;18.40;99.90;;;;;;6123279;23;20435;-85
2021/09/16 01:19:27;;;;;;;1.70;1.23;;;18.30;99.90;;;;;;6127582;23;20450;-86
2021/09/16 01:21:54;;;;;;;2.40;1.33;;;18.30;99.90;;;;;;6117447;23;20443;-88
2021/09/16 01:24:21;;;;;;;3.30;1.50;;;18.30;99.90;;;;;;6144966;23;20408;-85
2021/09/16 01:26:48;;;;;;;1.90;1.03;;;18.30;99.90;;;;;;6145443;23;20523;-87
2021/09/16 01:29:15;;;;;;;2.00;0.97;;;18.30;99.90;;;;;;6118427;23;20745;-85
2021/09/16 01:31:46;;;;;;;2.13;1.10;;;18.30;99.90;;;;;;6126005;23;20408;-84
2021/09/16 01:34:14;;;;;;;1.20;1.10;;;18.20;99.90;;;;;;6096965;23;20415;-84
2021/09/16 01:36:43;;;;;;;4.03;1.30;;;18.20;99.90;;;;;;6098269;23;20434;-85
2021/09/16 01:39:14;;;;;;;1.63;1.20;;;18.10;99.90;;;;;;6097387;23;20453;-88
2021/09/16 01:41:41;;;;;;;2.53;1.30;;;18.10;99.90;;;;;;6130525;23;20455;-84
2021/09/16 01:44:08;;;;;;;2.70;1.30;;;18.00;99.90;;;;;;6103568;23;20919;-84
2021/09/16 01:46:35;;;;;;;3.10;1.33;;;18.00;99.90;;;;;;6105616;23;20490;-84
2021/09/16 01:49:03;;;;;;;1.93;0.80;;;18.00;99.90;;;;;;6104827;23;20416;-84
2021/09/16 01:51:31;;;;;;;2.00;1.20;;;18.00;99.90;;;;;;6131839;23;20745;-84
2021/09/16 01:53:58;;;;;;;2.83;1.40;;;18.00;99.90;;;;;;6130751;23;20490;-85
2021/09/16 01:56:25;;;;;;;2.37;1.57;;;18.00;99.90;;;;;;6105450;23;20951;-83
2021/09/16 01:58:52;;;;;;;3.83;1.40;;;18.00;99.90;;;;;;6130668;23;20434;-85
2021/09/16 02:01:19;;;;;;;3.83;1.47;;;18.10;99.90;;;;;;6104640;23;20410;-83
2021/09/16 02:03:46;;;;;;;5.50;1.30;;;18.10;99.90;;;;;;6130501;23;20415;-83
2021/09/16 02:06:13;;;;;;;4.13;1.50;;;18.00;99.90;;;;;;6105024;23;20427;-85
2021/09/16 02:08:40;;;;;;;1.60;1.17;;;18.00;99.90;;;;;;6131392;23;20441;-83
2021/09/16 02:11:07;;;;;;;4.53;1.13;;;18.00;99.90;;;;;;6131811;23;20415;-85
2021/09/16 02:13:33;;;;;;;2.50;1.10;;;17.90;99.90;;;;;;6129316;23;20426;-84
2021/09/16 02:16:00;;;;;;;1.10;1.00;;;17.90;99.90;;;;;;6104891;23;20440;-83
2021/09/16 02:18:27;;;;;;;2.10;1.27;;;17.90;99.90;;;;;;6104267;23;20525;-86
2021/09/16 02:20:54;;;;;;;3.90;1.50;;;17.80;99.90;;;;;;6104908;23;20444;-84
2021/09/16 02:23:21;;;;;;;2.10;1.33;;;17.80;99.90;;;;;;6104311;23;20478;-83
2021/09/16 02:25:47;;;;;;;3.00;1.63;;;17.80;99.90;;;;;;6130506;23;20442;-84
2021/09/16 02:28:14;;;;;;;1.80;1.60;;;17.70;99.90;;;;;;6131374;23;20430;-83
2021/09/16 02:30:42;;;;;;;2.77;1.30;;;17.70;99.90;;;;;;6130143;23;20423;-86
2021/09/16 02:33:09;;;;;;;3.00;1.40;;;17.70;99.90;;;;;;6105235;23;20412;-85
2021/09/16 02:35:36;;;;;;;6.23;1.43;;;17.70;99.90;;;;;;6131840;23;20490;-85
2021/09/16 02:38:03;;;;;;;4.33;1.40;;;17.70;99.90;;;;;;6105976;23;20400;-84
2021/09/16 02:40:31;;;;;;;2.03;1.13;;;17.70;99.90;;;;;;6105641;23;20974;-85
2021/09/16 02:42:58;;;;;;;4.10;1.60;;;17.60;99.90;;;;;;6132375;23;20418;-85
2021/09/16 02:45:25;;;;;;;4.60;1.57;;;17.60;99.90;;;;;;6105634;23;20467;-83
2021/09/16 02:47:52;;;;;;;2.50;1.50;;;17.50;99.90;;;;;;6131831;23;20416;-86
2021/09/16 02:50:19;;;;;;;2.53;1.17;;;17.50;99.90;;;;;;6131248;23;20942;-84
2021/09/16 02:52:45;;;;;;;5.10;1.80;;;17.50;99.90;;;;;;6105519;23;20469;-84
2021/09/16 02:55:18;;;;;;;3.53;1.33;;;17.40;99.90;;;;;;6106666;23;20439;-84
2021/09/16 02:57:46;;;;;;;3.60;1.50;;;17.40;99.90;;;;;;6131730;23;20452;-84
2021/09/16 03:00:13;;;;;;;3.67;1.43;;;17.40;99.90;;;;;;6105736;23;20518;-85
2021/09/16 03:02:40;;;;;;;5.27;1.73;;;17.40;99.90;;;;;;6105799;23;20412;-84
2021/09/16 03:05:08;;;;;;;3.83;1.27;;;17.30;99.90;;;;;;6106548;23;20514;-85
2021/09/16 03:07:35;;;;;;;3.10;1.20;;;17.30;99.90;;;;;;6107662;23;20459;-85
2021/09/16 03:10:04;;;;;;;5.77;1.60;;;17.30;99.90;;;;;;6109772;23;20415;-86
2021/09/16 03:12:31;;;;;;;3.27;1.40;;;17.30;99.90;;;;;;6119376;23;20451;-88
2021/09/16 03:14:58;;;;;;;3.37;1.40;;;17.20;99.90;;;;;;6121690;23;20473;-84
2021/09/16 03:17:26;;;;;;;2.83;1.87;;;17.20;99.90;;;;;;6147724;23;20435;-83
2021/09/16 03:19:53;;;;;;;4.43;1.50;;;17.30;99.90;;;;;;6112096;23;20448;-85
2021/09/16 03:22:20;;;;;;;2.93;1.37;;;17.20;99.90;;;;;;6112931;23;20411;-84
2021/09/16 03:24:48;;;;;;;6.00;2.00;;;17.20;99.90;;;;;;6115012;23;20416;-84
2021/09/16 03:27:15;;;;;;;5.00;1.90;;;17.30;99.90;;;;;;6144596;23;20451;-86
2021/09/16 03:29:42;;;;;;;2.70;2.17;;;17.20;99.90;;;;;;6125121;23;20835;-84
2021/09/16 03:32:09;;;;;;;4.53;2.20;;;17.20;99.90;;;;;;6099684;23;20410;-84
2021/09/16 03:34:36;;;;;;;3.23;1.80;;;17.20;99.90;;;;;;6099592;23;20914;-84
2021/09/16 03:37:03;;;;;;;6.30;2.00;;;17.20;99.90;;;;;;6101723;23;20462;-84
2021/09/16 03:39:30;;;;;;;4.60;2.80;;;17.20;99.90;;;;;;6101326;23;20787;-84
2021/09/16 03:41:57;;;;;;;4.83;2.47;;;17.20;99.90;;;;;;6103448;23;20450;-83
2021/09/16 03:44:24;;;;;;;7.40;3.03;;;17.10;99.90;;;;;;6110884;23;20439;-87
2021/09/16 03:46:53;;;;;;;2.70;2.30;;;17.10;99.90;;;;;;6125783;23;20451;-89
2021/09/16 03:49:20;;;;;;;6.37;2.70;;;17.10;99.90;;;;;;6104844;23;20442;-83
2021/09/16 03:51:47;;;;;;;5.30;3.07;;;17.10;99.90;;;;;;6102465;23;20419;-83
2021/09/16 03:54:14;;;;;;;5.20;2.47;;;17.10;99.90;;;;;;6103048;23;20416;-83
2021/09/16 03:56:41;;;;;;;3.67;2.43;;;17.10;99.90;;;;;;6103507;23;20455;-83
2021/09/16 03:59:08;;;;;;;5.43;3.20;;;17.10;99.90;;;;;;6102791;23;20436;-85
2021/09/16 04:01:35;;;;;;;5.33;2.60;;;17.00;99.90;;;;;;6106102;23;20963;-84
2021/09/16 04:04:01;;;;;;;4.83;2.77;;;17.00;99.90;;;;;;6103609;23;20415;-84
2021/09/16 04:06:29;;;;;;;5.20;3.20;;;17.00;99.90;;;;;;6131420;23;20514;-83
2021/09/16 04:08:55;;;;;;;6.50;4.00;;;17.00;99.90;;;;;;6105588;23;20490;-84
2021/09/16 04:11:23;;;;;;;7.40;3.90;;;16.90;99.90;;;;;;6105577;23;20490;-84
2021/09/16 04:13:50;;;;;;;4.13;3.20;;;16.90;99.90;;;;;;6103580;23;20415;-83
2021/09/16 04:16:17;;;;;;;6.00;3.43;;;17.00;99.90;;;;;;6105113;23;20435;-84
2021/09/16 04:18:44;;;;;;;6.57;3.80;;;17.00;99.90;;;;;;6105768;23;20466;-84
2021/09/16 04:21:12;;;;;;;5.23;3.03;;;17.00;99.90;;;;;;6112134;23;20977;-85
2021/09/16 04:23:39;;;;;;;5.53;3.53;;;17.00;99.90;;;;;;6105820;23;20467;-84
2021/09/16 04:26:06;;;;;;;5.00;3.50;;;17.00;99.90;;;;;;6131569;23;20827;-83
2021/09/16 04:28:33;;;;;;;5.50;2.73;;;17.00;99.90;;;;;;6132146;23;20502;-84
2021/09/16 04:31:00;;;;;;;4.87;3.10;;;17.00;99.90;;;;;;6131787;23;20431;-86
2021/09/16 04:33:26;;;;;;;4.00;3.07;;;16.90;99.90;;;;;;6105536;23;20519;-82
2021/09/16 04:35:53;;;;;;;5.73;3.03;;;17.00;99.90;;;;;;6130554;23;20454;-85
2021/09/16 04:38:21;;;;;;;4.80;3.33;;;17.00;99.90;;;;;;6104064;23;20412;-82
2021/09/16 04:40:48;;;;;;;5.33;3.23;;;17.00;99.90;;;;;;6104953;23;20978;-84
2021/09/16 04:43:16;;;;;;;5.17;3.57;;;17.00;99.90;;;;;;6106300;23;20416;-82
2021/09/16 04:45:43;;;;;;;7.43;3.70;;;17.00;99.90;;;;;;6129788;23;20443;-83
2021/09/16 04:48:10;;;;;;;5.83;3.67;;;16.90;99.90;;;;;;6104221;23;20914;-84
2021/09/16 04:50:37;;;;;;;6.03;3.87;;;16.90;99.90;;;;;;6105118;23;20429;-83
2021/09/16 04:53:04;;;;;;;7.47;3.63;;;16.80;99.90;;;;;;6132686;23;20422;-85
2021/09/16 04:55:31;;;;;;;8.47;3.70;;;16.80;99.90;;;;;;6104579;23;20419;-83
2021/09/16 04:57:58;;;;;;;5.67;3.57;;;16.80;99.90;;;;;;6104654;23;20507;-85
2021/09/16 05:00:25;;;;;;;4.63;3.70;;;16.80;99.90;;;;;;6103335;23;20443;-82
2021/09/16 05:02:52;;;;;;;6.60;3.80;;;16.80;99.90;;;;;;6102970;23;20408;-82
2021/09/16 05:05:18;;;;;;;4.73;3.53;;;16.70;99.90;;;;;;6105086;23;20931;-85
2021/09/16 05:07:45;;;;;;;5.20;3.60;;;16.70;99.90;;;;;;6104281;23;20432;-83
2021/09/16 05:10:12;;;;;;;5.63;3.53;;;16.70;99.90;;;;;;6129418;23;20435;-82
2021/09/16 05:12:39;;;;;;;5.40;3.60;;;16.70;99.90;;;;;;6128797;23;20416;-84
2021/09/16 05:15:07;;;;;;;9.57;4.17;;;16.70;99.90;;;;;;6103225;23;20427;-82
2021/09/16 05:17:34;;;;;;;7.40;3.90;;;16.60;99.90;;;;;;6106042;23;20499;-89
2021/09/16 05:20:03;;;;;;;7.23;3.90;;;16.60;99.90;;;;;;6149871;23;20428;-89
2021/09/16 05:22:30;;;;;;;9.87;4.40;;;16.60;99.90;;;;;;6122539;23;20428;-85
2021/09/16 05:24:57;;;;;;;5.50;4.17;;;16.60;99.90;;;;;;6113656;23;20423;-86
2021/09/16 05:27:24;;;;;;;5.43;3.90;;;16.70;99.90;;;;;;6105753;23;20431;-85
2021/09/16 05:29:51;;;;;;;4.43;3.83;;;16.70;99.90;;;;;;6103812;23;20469;-85
2021/09/16 05:32:18;;;;;;;7.70;4.00;;;16.70;99.90;;;;;;6131589;23;20479;-83
2021/09/16 05:34:44;;;;;;;8.60;4.33;;;16.60;99.90;;;;;;6102307;23;20450;-84
2021/09/16 05:37:11;;;;;;;6.17;4.20;;;16.60;99.90;;;;;;6104720;23;20502;-85
2021/09/16 05:39:39;;;;;;;8.17;4.10;;;16.60;99.90;;;;;;6104829;23;20416;-85
2021/09/16 05:42:06;;;;;;;7.07;3.93;;;16.60;99.90;;;;;;6105976;23;20420;-84
2021/09/16 05:44:34;;;;;;;6.00;4.70;;;16.60;99.90;;;;;;6104068;23;20927;-84
2021/09/16 05:47:00;;;;;;;6.37;4.27;;;16.70;99.90;;;;;;6131756;23;20780;-84
2021/09/16 05:49:27;;;;;;;9.07;4.50;;;16.70;99.90;;;;;;6130910;23;20484;-84
2021/09/16 05:51:55;;;;;;;6.40;4.33;;;16.70;99.90;;;;;;6106571;23;20494;-83
2021/09/16 05:54:22;;;;;;;6.50;4.00;;;16.60;99.90;;;;;;6105851;23;20423;-84
2021/09/16 05:56:49;;;;;;;6.23;3.90;;;16.60;99.90;;;;;;6105872;23;20810;-85
2021/09/16 05:59:16;;;;;;;6.03;3.80;;;16.70;99.90;;;;;;6106060;23;20427;-85
2021/09/16 06:01:43;;;;;;;7.50;5.77;;;16.70;99.90;;;;;;6105835;23;20534;-85
2021/09/16 06:04:10;;;;;;;4.93;3.90;;;16.70;99.90;;;;;;6105775;23;20414;-83
2021/09/16 06:06:37;;;;;;;8.40;5.30;;;16.70;99.90;;;;;;6108697;23;20431;-85
2021/09/16 06:09:03;;;;;;;8.00;5.03;;;16.80;99.90;;;;;;6109362;23;20408;-84
2021/09/16 06:11:30;;;;;;;5.10;3.70;;;17.80;99.90;;;;;;6117343;23;20404;-85
2021/09/16 06:13:57;;;;;;;5.60;4.00;;;19.90;99.90;;;;;;6151745;23;20403;-84
2021/09/16 06:16:24;;;;;;;10.20;3.73;;;21.50;97.20;;;;;;6140704;23;20435;-80
2021/09/16 06:18:51;;;;;;;7.20;4.10;;;22.20;95.20;;;;;;6129871;23;20422;-81
2021/09/16 06:21:18;;;;;;;5.00;3.37;;;23.50;93.40;;;;;;6127011;23;20439;-83
2021/09/16 06:23:47;;;;;;;4.80;3.10;;;24.50;90.90;;;;;;6126879;23;20551;-85
2021/09/16 06:26:14;;;;;;;4.37;3.07;;;24.80;89.90;;;;;;6100895;23;20436;-82
2021/09/16 06:28:41;;;;;;;3.50;2.90;;;25.30;87.00;;;;;;6101217;23;20419;-82
2021/09/16 06:31:08;;;;;;;5.20;3.17;;;25.70;84.90;;;;;;6102984;23;20424;-81
2021/09/16 06:33:35;;;;;;;8.83;2.60;;;25.70;83.00;;;;;;6120672;23;20402;-84
2021/09/16 06:36:03;;;;;;;4.80;3.37;;;25.50;84.30;;;;;;6120610;23;20463;-84
2021/09/16 06:38:31;;;;;;;4.33;3.50;;;26.20;82.30;;;;;;6100368;23;20994;-82
2021/09/16 06:40:57;;;;;;;19.13;5.50;;;26.80;79.50;;;;;;6100506;23;20447;-82
2021/09/16 06:43:24;;;;;;;4.53;3.00;;;26.50;77.80;;;;;;6126745;23;20848;-83
2021/09/16 06:45:52;;;;;;;4.73;2.87;;;24.50;81.40;;;;;;6101714;23;20435;-81
2021/09/16 06:48:18;;;;;;;2.80;2.47;;;22.50;88.10;;;;;;6101251;23;20465;-83
2021/09/16 06:50:45;;;;;;;4.83;3.13;;;20.90;92.40;;;;;;6106002;23;20746;-81
2021/09/16 06:53:13;;;;;;;5.07;2.60;;;20.20;94.90;;;;;;6109301;23;20411;-80
2021/09/16 06:55:41;;;;;;;8.13;2.93;;;19.50;96.70;;;;;;6112857;23;20415;-83
2021/09/16 06:58:08;;;;;;;6.93;4.07;;;19.20;98.10;;;;;;6116000;23;20419;-81
2021/09/16 07:00:35;;;;;;;5.90;3.00;;;18.90;99.10;;;;;;6109905;23;20474;-82
2021/09/16 07:03:02;;;;;;;3.77;2.60;;;18.70;99.90;;;;;;6107534;23;20794;-82
2021/09/16 07:05:29;;;;;;;8.30;3.50;;;18.60;99.90;;;;;;6140399;23;20470;-82
2021/09/16 07:07:56;;;;;;;5.70;3.43;;;18.40;99.90;;;;;;6117775;23;20495;-82
2021/09/16 07:10:23;;;;;;;5.03;3.43;;;18.30;99.90;;;;;;6137767;23;20439;-82
2021/09/16 07:12:50;;;;;;;6.80;4.23;;;18.10;99.90;;;;;;6108153;23;20422;-84
2021/09/16 07:15:18;;;;;;;4.50;3.47;;;18.00;99.90;;;;;;6104997;23;20411;-83
2021/09/16 07:17:45;;;;;;;6.93;3.70;;;18.00;99.90;;;;;;6104382;23;20435;-83
2021/09/16 07:20:12;;;;;;;6.70;4.00;;;17.90;99.90;;;;;;6102215;23;20416;-83
2021/09/16 07:22:39;;;;;;;7.37;4.80;;;17.90;99.90;;;;;;6101635;23;20404;-83
2021/09/16 07:25:08;;;;;;;5.40;3.80;;;17.90;99.90;;;;;;6129416;23;20408;-82
2021/09/16 07:27:35;;;;;;;7.63;4.60;;;17.80;99.90;;;;;;6103030;23;20443;-84
2021/09/16 07:30:05;;;;;;;5.40;4.17;;;17.90;99.90;;;;;;6085573;23;20443;-83
2021/09/16 07:32:32;;;;;;;8.50;3.77;;;17.90;99.90;;;;;;6106056;23;20416;-86
2021/09/16 07:34:59;;;;;;;6.00;3.53;;;17.90;99.90;;;;;;6113496;23;20395;-87
2021/09/16 07:41:20;;;;;;;7.97;4.20;;;18.20;99.90;;;;;;6156956;23;20504;-83
2021/09/16 07:43:50;;;;;;;5.33;4.10;;;18.40;99.90;;;;;;6158064;23;20489;-84
2021/09/16 07:46:22;;;;;;;8.53;4.80;;;18.30;99.90;;;;;;6184599;23;20800;-86
2021/09/16 07:48:52;;;;;;;8.90;4.43;;;18.20;99.90;;;;;;6183780;23;20413;-83
2021/09/16 07:51:29;;;;;;;7.10;4.57;;;18.20;99.90;;;;;;6156528;23;20751;-83
2021/09/16 07:53:56;;;;;;;10.77;5.20;;;18.00;99.90;;;;;;6147759;23;20412;-82
2021/09/16 07:56:23;;;;;;;5.83;4.60;;;18.00;99.90;;;;;;6176143;23;20463;-82
2021/09/16 07:58:50;;;;;;;5.17;4.67;;;18.40;99.90;;;;;;6163363;23;20913;-84
2021/09/16 08:01:17;;;;;;;6.87;4.57;;;19.30;99.90;;;;;;6166402;23;20449;-85
2021/09/16 08:03:44;;;;;;;5.97;4.07;;;20.50;99.00;;;;;;6165200;23;20576;-84
2021/09/16 08:06:11;;;;;;;7.00;5.30;;;21.40;96.50;;;;;;6193749;23;20430;-85
2021/09/16 08:08:38;;;;;;;6.50;5.07;;;21.20;96.20;;;;;;6192942;23;20520;-82
2021/09/16 08:11:05;;;;;;;5.70;4.57;;;20.80;96.50;;;;;;6166276;23;20429;-83
2021/09/16 08:13:32;;;;;;;8.20;5.63;;;20.40;96.90;;;;;;6165576;23;20414;-84
2021/09/16 08:15:59;;;;;;;6.90;5.10;;;19.90;98.00;;;;;;6166650;23;20525;-84
2021/09/16 08:18:26;;;;;;;12.30;6.30;;;19.60;98.70;;;;;;6162280;23;20764;-84
2021/09/16 08:20:53;;;;;;;7.40;5.13;;;19.50;99.40;;;;;;6165254;23;20801;-83
2021/09/16 08:23:21;;;;;;;7.83;5.90;;;19.30;99.50;;;;;;6165691;23;20529;-84
2021/09/16 08:25:49;;;;;;;5.80;5.20;;;19.30;99.90;;;;;;6165482;23;20509;-83
2021/09/16 08:28:17;;;;;;;6.77;6.10;;;19.20;99.90;;;;;;6166725;23;20417;-84
2021/09/16 08:30:45;;;;;;;8.03;5.73;;;19.20;99.90;;;;;;6178664;23;20416;-88
2021/09/16 08:33:14;;;;;;;7.53;5.73;;;19.20;99.90;;;;;;6195910;23;20496;-81
2021/09/16 08:41:33;;;;;;;6.33;5.73;;;19.00;99.40;;;;;;6188231;23;20449;-85
2021/09/16 08:44:04;;;;;;;8.43;5.27;;;18.90;99.70;;;;;;6219206;23;20471;-87
2021/09/16 08:46:46;;;;;;;7.47;4.80;;;19.00;99.50;;;;;;6214883;23;20501;-84
2021/09/16 08:49:24;;;;;;;6.37;4.43;;;18.90;99.50;;;;;;6192936;23;20414;-86
2021/09/16 08:51:56;;;;;;;4.97;4.30;;;18.90;99.60;;;;;;6190345;23;21012;-84
2021/09/16 08:54:35;;;;;;;5.17;3.93;;;19.10;99.30;;;;;;6185961;23;20433;-85
2021/09/16 08:57:04;;;;;;;5.73;4.13;;;19.30;98.90;;;;;;6186073;23;20987;-83
2021/09/16 08:59:42;;;;;;;3.40;3.13;;;19.50;98.60;;;;;;6194117;23;20439;-85
2021/09/16 09:02:24;;;;;;;4.33;3.00;;;19.80;97.80;;;;;;6209232;23;20468;-88
2021/09/16 09:05:01;;;;;;;6.30;3.73;;;20.00;97.50;;;;;;6188663;23;20444;-82
2021/09/16 09:07:46;;;;;;;4.00;3.20;;;20.00;96.70;;;;;;6188228;23;20494;-82
2021/09/16 09:10:41;;;;;;;6.80;5.00;;;20.10;96.90;;;;;;6188709;23;20412;-86
2021/09/16 09:13:19;;;;;;;8.23;3.77;;;20.10;96.90;;;;;;6186059;23;20489;-85
2021/09/16 09:16:01;;;;;;;6.40;4.40;;;20.00;97.30;;;;;;6185679;23;20452;-84
2021/09/16 09:18:52;;;;;;;5.40;3.70;;;19.80;97.60;;;;;;6187048;23;20492;-84
2021/09/16 09:21:39;;;;;;;5.93;5.43;;;19.90;98.00;;;;;;6187717;23;20546;-84
2021/09/16 09:24:29;;;;;;;5.00;4.33;;;19.80;97.40;;;;;;6188149;23;20417;-83
2021/09/16 09:26:56;;;;;;;8.00;5.33;;;19.80;97.70;;;;;;6186563;23;20438;-83
2021/09/16 09:29:38;;;;;;;5.80;5.20;;;19.70;98.20;;;;;;6187239;23;20955;-84
2021/09/16 09:32:18;;;;;;;6.33;5.20;;;19.80;98.20;;;;;;6190668;23;20480;-86
2021/09/16 09:34:52;;;;;;;4.90;4.03;;;19.80;98.10;;;;;;6186633;23;20424;-84
2021/09/16 09:37:36;;;;;;;4.43;4.03;;;20.00;98.10;;;;;;6162122;23;20425;-85
2021/09/16 09:40:08;;;;;;;4.70;4.17;;;20.10;97.70;;;;;;6190279;23;20493;-84
2021/09/16 09:42:38;;;;;;;4.57;4.17;;;20.10;97.40;;;;;;6186921;23;20469;-83
2021/09/16 09:45:13;;;;;;;7.23;4.03;;;20.30;97.20;;;;;;6188828;23;20922;-83
2021/09/16 09:47:53;;;;;;;5.37;4.13;;;20.40;97.10;;;;;;6188693;23;20516;-84
2021/09/16 09:51:07;;;;;;;4.80;3.97;;;21.30;96.20;;;;;;6189617;23;20412;-87
2021/09/16 09:53:40;;;;;;;3.40;3.00;;;23.30;91.90;;;;;;6189981;23;20394;-86
2021/09/16 09:56:21;;;;;;;5.20;3.40;;;24.50;88.50;;;;;;6189338;23;20953;-84
2021/09/16 09:58:56;;;;;;;5.50;2.93;;;25.60;83.70;;;;;;6187080;23;20414;-84
2021/09/16 10:01:30;;;;;;;5.47;3.57;;;25.70;80.80;;;;;;6188027;23;20422;-84
2021/09/16 10:04:28;;;;;;;4.73;3.03;;;24.60;82.60;;;;;;6187750;23;20757;-84
2021/09/16 10:07:02;;;;;;;3.77;3.30;;;24.00;84.80;;;;;;6187442;23;20442;-88
2021/09/16 10:09:34;;;;;;;6.70;3.67;;;23.50;87.20;;;;;;6186627;23;20572;-84
2021/09/16 10:12:10;;;;;;;6.67;3.90;;;22.70;88.30;;;;;;6186963;23;20476;-85
2021/09/16 10:14:59;;;;;;;4.87;3.30;;;22.00;90.00;;;;;;6186626;23;20955;-88
2021/09/16 10:17:42;;;;;;;4.53;3.53;;;21.40;91.10;;;;;;6187982;23;20444;-84
2021/09/16 10:20:15;;;;;;;5.60;4.10;;;21.10;91.80;;;;;;6196236;23;20398;-83
2021/09/16 10:22:51;;;;;;;3.93;3.53;;;20.80;92.30;;;;;;6198003;23;20953;-83
2021/09/16 10:25:25;;;;;;;3.90;3.50;;;21.10;93.00;;;;;;6185800;23;20401;-85
2021/09/16 10:28:01;;;;;;;4.47;3.40;;;21.70;91.40;;;;;;6186618;23;20405;-85
2021/09/16 10:30:43;;;;;;;4.10;3.80;;;21.70;91.00;;;;;;6187526;23;20820;-85
2021/09/16 10:33:36;;;;;;;4.07;3.67;;;21.90;90.80;;;;;;6186499;23;20414;-84
2021/09/16 10:36:13;;;;;;;4.07;3.67;;;22.10;90.50;;;;;;6188753;23;20539;-88
2021/09/16 10:38:57;;;;;;;4.20;3.30;;;21.80;90.60;;;;;;6195791;23;20406;-83
2021/09/16 10:41:43;;;;;;;3.80;2.83;;;21.50;90.90;;;;;;6196800;23;20526;-87
2021/09/16 10:44:22;;;;;;;4.60;3.23;;;21.40;91.20;;;;;;6197288;23;20410;-84
2021/09/16 10:46:59;;;;;;;5.67;3.00;;;21.50;91.70;;;;;;6200253;23;20429;-83
2021/09/16 10:49:28;;;;;;;3.07;2.87;;;21.80;90.70;;;;;;6189259;23;20441;-83
2021/09/16 10:52:16;;;;;;;4.87;2.83;;;21.60;90.10;;;;;;6188332;23;20647;-83
2021/09/16 10:54:54;;;;;;;3.90;3.60;;;21.10;90.90;;;;;;6189453;23;20413;-83
2021/09/16 10:57:38;;;;;;;3.77;3.23;;;21.30;91.50;;;;;;6187007;23;20508;-85
2021/09/16 11:00:16;;;;;;;3.37;2.80;;;22.10;91.10;;;;;;6184477;23;20630;-83
2021/09/16 11:02:46;;;;;;;3.50;2.60;;;22.80;87.30;;;;;;6185483;23;20813;-82
2021/09/16 11:05:21;;;;;;;3.70;2.60;;;22.60;85.40;;;;;;6184862;23;20420;-83
2021/09/16 11:07:49;;;;;;;5.37;2.83;;;22.40;85.90;;;;;;6184531;23;20437;-82
2021/09/16 11:10:16;;;;;;;3.33;2.80;;;22.50;85.90;;;;;;6186545;23;20414;-84
2021/09/16 11:12:48;;;;;;;3.53;3.20;;;22.20;85.40;;;;;;6184924;23;20492;-85
2021/09/16 11:15:25;;;;;;;3.40;3.10;;;22.00;86.60;;;;;;6186029;23;20441;-85
2021/09/16 11:18:04;;;;;;;4.23;2.63;;;22.00;87.70;;;;;;6186597;23;20433;-84
2021/09/16 11:20:32;;;;;;;4.03;2.43;;;22.40;86.80;;;;;;6186197;23;20394;-85
2021/09/16 11:22:59;;;;;;;2.90;2.40;;;22.80;85.00;;;;;;6184085;23;20472;-84
2021/09/16 11:25:34;;;;;;;2.23;2.03;;;23.30;83.90;;;;;;6187697;23;20961;-85
2021/09/16 11:28:00;;;;;;;3.10;2.07;;;23.80;82.30;;;;;;6189297;23;20390;-83
2021/09/16 11:30:27;;;;;;;2.53;2.33;;;24.10;80.80;;;;;;6188241;23;20704;-85
2021/09/16 11:33:02;;;;;;;2.30;2.10;;;23.90;80.00;;;;;;6187525;23;20425;-84
2021/09/16 11:35:29;;;;;;;2.30;2.10;;;23.60;81.50;;;;;;6186905;23;20408;-84
2021/09/16 11:37:57;;;;;;;3.07;1.87;;;23.70;80.00;;;;;;6188154;23;20421;-84
2021/09/16 11:40:28;;;;;;;3.90;2.47;;;24.00;78.50;;;;;;6188106;23;20402;-83
2021/09/16 11:42:58;;;;;;;3.20;2.70;;;24.30;78.40;;;;;;6186765;23;20444;-83
2021/09/16 11:45:27;;;;;;;3.60;3.00;;;24.30;77.70;;;;;;6186597;23;20405;-83
2021/09/16 11:48:04;;;;;;;3.00;2.50;;;23.90;78.40;;;;;;6190120;23;20409;-84
2021/09/16 11:50:40;;;;;;;3.57;2.67;;;23.40;80.70;;;;;;6186872;23;20413;-83
2021/09/16 11:53:21;;;;;;;63.40;11.17;;;22.80;82.90;;;;;;6188097;23;20451;-83
2021/09/16 11:55:58;;;;;;;4.10;2.90;;;22.50;84.50;;;;;;6187339;23;20467;-86
2021/09/16 11:58:26;;;;;;;3.43;2.30;;;22.20;85.80;;;;;;6188662;23;20413;-83
2021/09/16 12:00:54;;;;;;;4.07;2.60;;;22.30;86.70;;;;;;6186503;23;20500;-84
2021/09/16 12:03:27;;;;;;;3.33;2.50;;;22.40;84.70;;;;;;6184364;23;20456;-83
2021/09/16 12:06:15;;;;;;;4.87;2.87;;;22.50;84.10;;;;;;6188176;23;20440;-83
2021/09/16 12:08:49;;;;;;;2.97;2.70;;;22.20;84.60;;;;;;6186076;23;20398;-82
2021/09/16 12:11:26;;;;;;;5.67;3.60;;;22.20;85.70;;;;;;6185710;23;20398;-82
2021/09/16 12:13:58;;;;;;;3.40;2.90;;;22.10;86.10;;;;;;6186464;23;20504;-82
2021/09/16 12:16:29;;;;;;;2.97;2.27;;;22.10;86.10;;;;;;6186961;23;20450;-82
2021/09/16 12:19:01;;;;;;;3.07;2.40;;;22.20;86.20;;;;;;6184551;23;20420;-84
2021/09/16 12:21:43;;;;;;;3.73;3.03;;;22.20;86.70;;;;;;6184248;23;20414;-84
2021/09/16 12:24:18;;;;;;;8.60;2.63;;;22.10;86.60;;;;;;6186344;23;20420;-83
2021/09/16 12:26:47;;;;;;;3.63;2.70;;;22.10;87.00;;;;;;6187901;23;21131;-83
2021/09/16 12:29:21;;;;;;;3.83;2.60;;;22.00;85.90;;;;;;6185700;23;20432;-82
2021/09/16 12:32:02;;;;;;;3.07;2.33;;;21.90;86.60;;;;;;6184819;23;20421;-81
2021/09/16 12:34:40;;;;;;;5.73;2.10;;;22.00;86.70;;;;;;6186022;23;20394;-83
2021/09/16 12:37:14;;;;;;;3.20;2.53;;;21.90;87.10;;;;;;6187086;23;20433;-82
2021/09/16 12:39:46;;;;;;;2.63;2.27;;;21.90;86.90;;;;;;6183906;23;20397;-83
2021/09/16 12:42:15;;;;;;;4.73;2.90;;;21.90;87.20;;;;;;6185694;23;20473;-82
2021/09/16 12:44:43;;;;;;;2.70;2.50;;;22.00;87.10;;;;;;6185769;23;20476;-81
2021/09/16 12:47:16;;;;;;;2.80;2.57;;;22.10;86.40;;;;;;6186091;23;20432;-85
2021/09/16 12:49:44;;;;;;;3.80;2.10;;;22.00;86.00;;;;;;6185595;23;20409;-83
2021/09/16 12:52:12;;;;;;;3.33;2.67;;;22.00;86.40;;;;;;6186319;23;20918;-84
2021/09/16 12:55:01;;;;;;;3.80;2.67;;;22.00;86.70;;;;;;6183353;23;20414;-83
2021/09/16 12:57:30;;;;;;;2.70;2.50;;;22.00;87.00;;;;;;6183973;23;20813;-83
2021/09/16 13:00:05;;;;;;;3.23;2.93;;;22.00;87.20;;;;;;6183920;23;20480;-86
2021/09/16 13:02:44;;;;;;;3.20;2.60;;;22.10;87.30;;;;;;6200693;23;20441;-84
2021/09/16 13:05:22;;;;;;;4.00;2.77;;;22.10;87.30;;;;;;6188524;23;20437;-84
2021/09/16 13:08:09;;;;;;;3.03;2.70;;;22.30;87.70;;;;;;6190272;23;20433;-83
2021/09/16 13:10:48;;;;;;;3.67;2.80;;;22.70;87.20;;;;;;6189536;23;20424;-83